Time;durP1;ratioP1;P1;durP2;ratioP2;P2;SDS_P1;SDS_P2;PMS_P1;PMS_P2;Temp;Humidity;BMP_temperature;BMP_pressure;BME280_temperature;BME280_humidity;BME280_pressure;Samples;Min_cycle;Max_cycle;Signal;HPM_P1;HPM_P2
2022/06/16 00:02:13;;;;;;;6.25;2.90;;;14.70;99.90;;;;;;5032749;28;20056;-69
2022/06/16 00:04:38;;;;;;;4.65;2.95;;;14.70;99.90;;;;;;5032399;28;20051;-69
2022/06/16 00:07:04;;;;;;;8.05;3.00;;;14.60;99.90;;;;;;5033879;28;20096;-69
2022/06/16 00:09:29;;;;;;;5.03;2.80;;;14.60;99.90;;;;;;5032368;28;20095;-69
2022/06/16 00:11:55;;;;;;;7.95;3.20;;;14.50;99.90;;;;;;5032324;28;20048;-69
2022/06/16 00:14:23;;;;;;;6.50;3.13;;;14.50;99.90;;;;;;5032454;28;20086;-69
2022/06/16 00:16:49;;;;;;;5.95;3.20;;;14.50;99.90;;;;;;5015795;28;20046;-69
2022/06/16 00:19:15;;;;;;;8.10;3.53;;;14.50;99.90;;;;;;5032204;28;20571;-69
2022/06/16 00:21:41;;;;;;;5.53;3.38;;;14.50;99.90;;;;;;5032137;28;20029;-69
2022/06/16 00:24:07;;;;;;;5.75;2.83;;;14.50;99.90;;;;;;5032305;28;20041;-69
2022/06/16 00:26:33;;;;;;;7.45;3.05;;;14.50;99.90;;;;;;5033604;28;20117;-69
2022/06/16 00:28:59;;;;;;;6.88;3.33;;;14.50;99.90;;;;;;5032047;28;20484;-69
2022/06/16 00:31:24;;;;;;;6.32;3.22;;;14.50;99.90;;;;;;5032017;28;20042;-69
2022/06/16 00:33:51;;;;;;;8.15;3.50;;;14.50;99.90;;;;;;5031984;28;20036;-69
2022/06/16 00:36:17;;;;;;;7.78;3.92;;;14.50;99.90;;;;;;5033106;28;20508;-69
2022/06/16 00:38:42;;;;;;;9.73;4.28;;;14.50;99.90;;;;;;5031843;28;20058;-69
2022/06/16 00:41:09;;;;;;;10.95;3.50;;;14.50;99.90;;;;;;5032214;28;20033;-69
2022/06/16 00:43:35;;;;;;;7.82;3.63;;;14.50;99.90;;;;;;5031889;28;20041;-69
2022/06/16 00:46:04;;;;;;;8.65;3.80;;;14.40;99.90;;;;;;5031669;28;20044;-70
2022/06/16 00:48:57;;;;;;;7.90;3.40;;;14.40;99.90;;;;;;5031794;28;20042;-69
2022/06/16 00:51:39;;;;;;;7.85;3.47;;;14.40;99.90;;;;;;5012686;28;20100;-69
2022/06/16 00:54:12;;;;;;;9.50;3.67;;;14.30;99.90;;;;;;5032772;28;20120;-69
2022/06/16 00:56:38;;;;;;;9.80;3.83;;;14.20;99.90;;;;;;5031747;28;20128;-69
2022/06/16 00:59:07;;;;;;;5.97;3.08;;;14.10;99.90;;;;;;5033348;28;20045;-69
2022/06/16 01:01:35;;;;;;;6.65;3.53;;;14.10;99.90;;;;;;5035833;28;20041;-69
2022/06/16 01:06:46;;;;;;;8.68;4.22;;;13.90;99.90;;;;;;5035723;28;20045;-69
2022/06/16 01:09:15;;;;;;;6.60;3.45;;;13.90;99.90;;;;;;5035702;28;20413;-69
2022/06/16 01:14:52;;;;;;;8.52;3.58;;;13.90;99.90;;;;;;5035575;28;20045;-69
2022/06/16 01:17:43;;;;;;;9.95;3.88;;;13.80;99.90;;;;;;5019174;28;20414;-69
2022/06/16 01:20:32;;;;;;;8.15;3.53;;;13.70;99.90;;;;;;5035409;28;20049;-69
2022/06/16 01:23:25;;;;;;;8.45;3.92;;;13.70;99.90;;;;;;5035518;28;20045;-69
2022/06/16 01:26:10;;;;;;;5.28;3.00;;;13.70;99.90;;;;;;5035376;28;20041;-69
2022/06/16 01:29:13;;;;;;;7.85;3.92;;;13.60;99.90;;;;;;5035642;28;20543;-69
2022/06/16 01:31:39;;;;;;;;;;;13.50;99.90;;;;;;4960099;28;20459;-69
2022/06/16 01:34:32;;;;;;;6.72;3.50;;;13.40;99.90;;;;;;4975723;28;20370;-69
2022/06/16 01:37:03;;;;;;;9.07;3.88;;;13.40;99.90;;;;;;4959459;28;20046;-69
2022/06/16 01:39:41;;;;;;;7.50;3.67;;;13.40;99.90;;;;;;4975579;28;20463;-69
2022/06/16 01:42:22;;;;;;;7.35;3.58;;;13.50;99.90;;;;;;4959368;28;20146;-69
2022/06/16 01:44:55;;;;;;;7.95;3.92;;;13.50;99.90;;;;;;4959292;28;20053;-69
2022/06/16 01:47:23;;;;;;;4.95;3.33;;;13.40;99.90;;;;;;4959493;28;20054;-69
2022/06/16 01:50:01;;;;;;;7.00;4.00;;;13.50;99.90;;;;;;4959179;28;20051;-69
2022/06/16 01:52:42;;;;;;;7.55;3.97;;;13.50;99.90;;;;;;4959236;28;20058;-69
2022/06/16 01:55:17;;;;;;;7.07;3.80;;;13.40;99.90;;;;;;4959083;28;20130;-69
2022/06/16 01:58:06;;;;;;;6.32;3.40;;;13.40;99.90;;;;;;4959172;28;20057;-69
2022/06/16 02:00:33;;;;;;;9.70;4.13;;;13.50;99.90;;;;;;4959021;28;20507;-69
2022/06/16 02:03:23;;;;;;;6.45;3.70;;;13.40;99.90;;;;;;4958949;28;20078;-69
2022/06/16 02:06:08;;;;;;;10.52;4.53;;;13.50;99.90;;;;;;5003659;28;20401;-69
2022/06/16 02:08:39;;;;;;;8.70;4.50;;;13.50;99.90;;;;;;5034936;28;20108;-69
2022/06/16 02:11:09;;;;;;;7.68;3.97;;;13.50;99.90;;;;;;5017880;28;20056;-69
2022/06/16 02:13:42;;;;;;;9.65;3.97;;;13.60;99.90;;;;;;5034592;28;20042;-69
2022/06/16 02:16:17;;;;;;;7.07;3.95;;;13.60;99.90;;;;;;5034987;28;20060;-69
2022/06/16 02:18:43;;;;;;;9.57;3.55;;;13.70;99.90;;;;;;5034783;28;20559;-69
2022/06/16 02:21:18;;;;;;;6.35;4.07;;;13.70;99.90;;;;;;5034805;28;20571;-69
2022/06/16 02:23:45;;;;;;;5.82;3.78;;;13.70;99.90;;;;;;5034576;28;20091;-69
2022/06/16 02:26:12;;;;;;;8.45;4.10;;;13.70;99.90;;;;;;5035729;28;20076;-69
2022/06/16 02:28:59;;;;;;;8.07;3.85;;;13.80;99.90;;;;;;5034236;28;20045;-69
2022/06/16 02:31:40;;;;;;;8.63;4.40;;;13.80;99.90;;;;;;5034264;28;20045;-69
2022/06/16 02:34:38;;;;;;;7.93;4.45;;;13.80;99.90;;;;;;5034361;28;20095;-69
2022/06/16 02:37:39;;;;;;;10.10;4.22;;;13.80;99.90;;;;;;5018347;28;20401;-69
2022/06/16 02:40:10;;;;;;;8.32;4.10;;;13.80;99.90;;;;;;5034084;28;20041;-69
2022/06/16 02:42:55;;;;;;;8.60;4.22;;;13.70;99.90;;;;;;5034242;28;20422;-69
2022/06/16 02:45:30;;;;;;;8.10;4.10;;;13.80;99.90;;;;;;5033824;28;20041;-69
2022/06/16 02:48:14;;;;;;;7.65;4.30;;;13.80;99.90;;;;;;5033895;28;20182;-69
2022/06/16 02:50:39;;;;;;;7.55;3.70;;;13.70;99.90;;;;;;5033935;28;20451;-69
2022/06/16 02:53:15;;;;;;;7.82;4.30;;;13.70;99.90;;;;;;5033912;28;20050;-69
2022/06/16 02:55:45;;;;;;;7.68;4.05;;;13.60;99.90;;;;;;5033799;28;20049;-69
2022/06/16 02:58:15;;;;;;;8.15;4.38;;;13.60;99.90;;;;;;5033962;28;20512;-69
2022/06/16 03:00:45;;;;;;;8.40;3.83;;;13.60;99.90;;;;;;5034011;28;20068;-69
2022/06/16 03:03:24;;;;;;;7.78;4.22;;;13.60;99.90;;;;;;5033741;28;20041;-69
2022/06/16 03:05:57;;;;;;;7.03;4.57;;;13.50;99.90;;;;;;5033827;28;20050;-69
2022/06/16 03:08:28;;;;;;;6.03;3.50;;;13.50;99.90;;;;;;5033569;28;20121;-69
2022/06/16 03:10:58;;;;;;;7.32;3.90;;;13.50;99.90;;;;;;5034522;28;20367;-69
2022/06/16 03:13:28;;;;;;;7.13;5.20;;;13.40;99.90;;;;;;5033713;28;20077;-69
2022/06/16 03:15:55;;;;;;;7.57;5.63;;;13.40;99.90;;;;;;5033611;28;20045;-69
2022/06/16 03:18:22;;;;;;;7.68;5.30;;;13.30;99.90;;;;;;5033349;28;20037;-69
2022/06/16 03:20:49;;;;;;;6.90;4.88;;;13.30;99.90;;;;;;5032953;28;20478;-69
2022/06/16 03:23:14;;;;;;;6.85;4.03;;;13.20;99.90;;;;;;5033201;28;20103;-69
2022/06/16 03:25:41;;;;;;;7.47;4.50;;;13.30;99.90;;;;;;5033179;28;20449;-69
2022/06/16 03:28:08;;;;;;;9.63;4.63;;;13.30;99.90;;;;;;5033402;28;20108;-69
2022/06/16 03:30:34;;;;;;;7.15;4.45;;;13.20;99.90;;;;;;5033095;28;20494;-69
2022/06/16 03:33:01;;;;;;;8.30;4.80;;;13.20;99.90;;;;;;5033323;28;20071;-69
2022/06/16 03:35:27;;;;;;;8.18;5.00;;;13.20;99.90;;;;;;5032986;28;20049;-69
2022/06/16 03:37:53;;;;;;;8.38;4.68;;;13.10;99.90;;;;;;5032999;28;20052;-69
2022/06/16 03:40:20;;;;;;;7.25;4.57;;;13.10;99.90;;;;;;5032909;28;20037;-69
2022/06/16 03:42:47;;;;;;;9.88;4.30;;;13.10;99.90;;;;;;5032890;28;20120;-69
2022/06/16 03:45:14;;;;;;;7.50;4.00;;;13.10;99.90;;;;;;5032855;28;20049;-69
2022/06/16 03:47:39;;;;;;;7.35;4.90;;;13.00;99.90;;;;;;5032808;28;20497;-69
2022/06/16 03:50:07;;;;;;;7.70;4.25;;;13.00;99.90;;;;;;5032737;28;20050;-69
2022/06/16 03:52:33;;;;;;;8.60;4.82;;;12.90;99.90;;;;;;5032658;28;20045;-69
2022/06/16 03:54:58;;;;;;;7.97;5.00;;;12.90;99.90;;;;;;5032586;28;20047;-69
2022/06/16 03:57:24;;;;;;;7.05;4.57;;;12.90;99.90;;;;;;5032478;28;20168;-69
2022/06/16 03:59:49;;;;;;;7.55;4.78;;;12.90;99.90;;;;;;5032791;28;20073;-69
2022/06/16 04:02:15;;;;;;;8.77;5.18;;;12.90;99.90;;;;;;5032416;28;20067;-69
2022/06/16 04:04:41;;;;;;;7.78;5.28;;;12.90;99.90;;;;;;5032399;28;20043;-69
2022/06/16 04:07:07;;;;;;;9.95;5.05;;;12.90;99.90;;;;;;5032410;28;20041;-69
2022/06/16 04:09:33;;;;;;;9.35;4.80;;;12.90;99.90;;;;;;5032461;28;20041;-69
2022/06/16 04:11:58;;;;;;;8.80;5.40;;;12.90;99.90;;;;;;5032685;28;20044;-69
2022/06/16 04:14:24;;;;;;;10.38;5.60;;;13.00;99.90;;;;;;5032261;28;20622;-69
2022/06/16 04:16:52;;;;;;;10.18;5.75;;;13.10;99.90;;;;;;5032181;28;20053;-69
2022/06/16 04:19:23;;;;;;;10.23;5.70;;;13.10;99.90;;;;;;5032491;28;20112;-69
2022/06/16 04:21:52;;;;;;;8.20;5.53;;;13.20;99.90;;;;;;5032531;28;20098;-69
2022/06/16 04:24:18;;;;;;;9.07;5.22;;;13.20;99.90;;;;;;5032102;28;20542;-69
2022/06/16 04:26:45;;;;;;;8.75;4.88;;;13.30;99.90;;;;;;5032230;28;20045;-69
2022/06/16 04:29:11;;;;;;;8.48;5.30;;;13.30;99.90;;;;;;5015921;28;20046;-69
2022/06/16 04:31:38;;;;;;;10.30;6.15;;;13.40;99.90;;;;;;5032324;28;20041;-69
2022/06/16 04:34:04;;;;;;;8.00;5.45;;;13.40;99.90;;;;;;5015540;28;20041;-69
2022/06/16 04:36:30;;;;;;;9.05;5.70;;;13.40;99.90;;;;;;5032152;28;20049;-69
2022/06/16 04:38:55;;;;;;;8.07;4.68;;;13.50;99.90;;;;;;5033227;28;20044;-69
2022/06/16 04:41:22;;;;;;;7.82;5.53;;;13.60;99.90;;;;;;5031899;28;20037;-69
2022/06/16 04:43:48;;;;;;;9.43;5.70;;;13.60;99.90;;;;;;5032116;28;20045;-69
2022/06/16 04:46:15;;;;;;;10.10;5.63;;;13.70;99.90;;;;;;5031911;28;20116;-69
2022/06/16 04:48:41;;;;;;;9.05;5.47;;;13.80;99.90;;;;;;5032075;28;20042;-69
2022/06/16 04:51:07;;;;;;;12.23;5.85;;;13.90;99.90;;;;;;5032123;28;20045;-69
2022/06/16 04:53:33;;;;;;;9.50;5.82;;;13.90;99.90;;;;;;5032970;28;20504;-69
2022/06/16 04:56:00;;;;;;;10.73;5.85;;;14.00;99.90;;;;;;5031940;28;20041;-69
2022/06/16 04:58:27;;;;;;;9.98;5.45;;;14.10;99.90;;;;;;5031649;28;20096;-69
2022/06/16 05:00:53;;;;;;;12.50;5.85;;;14.20;99.90;;;;;;5031895;28;20045;-69
2022/06/16 05:03:21;;;;;;;8.60;5.93;;;14.20;99.90;;;;;;5033515;28;20051;-69
2022/06/16 05:05:48;;;;;;;12.13;5.80;;;14.30;99.90;;;;;;5031725;28;20116;-69
2022/06/16 05:08:16;;;;;;;10.73;5.15;;;14.40;99.90;;;;;;5031761;28;20056;-69
2022/06/16 05:10:42;;;;;;;12.88;5.82;;;14.40;99.90;;;;;;5031670;28;20409;-69
2022/06/16 05:13:08;;;;;;;10.48;5.10;;;14.50;99.90;;;;;;5031926;28;20045;-69
2022/06/16 05:15:34;;;;;;;13.40;5.47;;;14.60;99.90;;;;;;5031599;28;20041;-69
2022/06/16 05:18:01;;;;;;;10.18;5.10;;;14.70;99.90;;;;;;5031538;28;20103;-69
2022/06/16 05:20:26;;;;;;;8.23;5.20;;;14.70;99.90;;;;;;5031561;28;20037;-69
2022/06/16 05:22:52;;;;;;;11.25;5.22;;;14.70;99.90;;;;;;5031844;28;20040;-69
2022/06/16 05:25:17;;;;;;;10.63;5.20;;;14.80;99.90;;;;;;5031507;28;20456;-69
2022/06/16 05:27:43;;;;;;;11.50;5.53;;;14.80;99.90;;;;;;5031555;28;20132;-69
2022/06/16 05:30:09;;;;;;;10.60;5.25;;;14.90;99.90;;;;;;5031510;28;20081;-69
2022/06/16 05:32:34;;;;;;;10.77;5.18;;;14.90;99.90;;;;;;5031461;28;20048;-69
2022/06/16 05:35:00;;;;;;;10.57;4.93;;;15.00;99.90;;;;;;5031358;28;20037;-69
2022/06/16 05:37:26;;;;;;;9.15;4.70;;;15.00;99.90;;;;;;5031483;28;20049;-69
2022/06/16 05:39:52;;;;;;;7.75;4.03;;;15.00;99.90;;;;;;5031320;28;20449;-69
2022/06/16 05:42:19;;;;;;;9.93;4.72;;;15.00;99.90;;;;;;5031647;28;20467;-69
2022/06/16 05:44:44;;;;;;;11.35;5.00;;;15.10;99.90;;;;;;5033545;28;20076;-69
2022/06/16 05:47:10;;;;;;;6.78;4.30;;;15.20;99.90;;;;;;5036498;28;20453;-69
2022/06/16 05:49:38;;;;;;;9.07;4.53;;;15.20;99.90;;;;;;5035012;28;20033;-69
2022/06/16 05:52:18;;;;;;;9.50;4.25;;;15.30;99.90;;;;;;5035224;28;20048;-69
2022/06/16 05:54:44;;;;;;;6.30;3.78;;;15.30;99.90;;;;;;5034902;28;20041;-69
2022/06/16 05:57:10;;;;;;;7.45;3.70;;;15.30;99.90;;;;;;5034983;28;20106;-69
2022/06/16 05:59:37;;;;;;;8.63;4.00;;;15.30;99.90;;;;;;5018639;28;20041;-69
2022/06/16 06:02:11;;;;;;;6.97;3.53;;;15.40;99.90;;;;;;5034718;28;20440;-69
2022/06/16 06:04:36;;;;;;;8.15;3.60;;;15.40;99.90;;;;;;5034657;28;20041;-69
2022/06/16 06:07:02;;;;;;;7.07;3.50;;;15.50;99.90;;;;;;5034945;28;20052;-69
2022/06/16 06:16:25;;;;;;;6.80;2.80;;;15.60;99.90;;;;;;5034588;28;20435;-69
2022/06/16 06:18:10;;;;;;;6.35;2.80;;;15.70;99.90;;;;;;5034307;28;20050;-69
2022/06/16 06:20:35;;;;;;;7.95;2.20;;;15.80;99.90;;;;;;5034412;28;20041;-69
2022/06/16 06:23:01;;;;;;;6.10;2.58;;;15.90;99.90;;;;;;5034370;28;20072;-69
2022/06/16 06:25:27;;;;;;;9.13;2.58;;;16.00;99.90;;;;;;5034297;28;20079;-69
2022/06/16 06:27:52;;;;;;;5.25;1.67;;;16.10;99.90;;;;;;5034318;28;20475;-69
2022/06/16 06:30:21;;;;;;;4.05;1.45;;;16.20;99.90;;;;;;5034264;28;20126;-69
2022/06/16 06:32:47;;;;;;;5.40;1.55;;;16.20;99.90;;;;;;5034240;28;20068;-69
2022/06/16 06:35:15;;;;;;;3.80;1.63;;;16.30;99.90;;;;;;5034126;28;20076;-69
2022/06/16 06:37:42;;;;;;;5.13;1.45;;;16.40;99.90;;;;;;5034021;28;20037;-69
2022/06/16 06:40:12;;;;;;;3.47;1.48;;;16.40;99.90;;;;;;5034110;28;20041;-69
2022/06/16 06:42:38;;;;;;;6.70;1.63;;;16.50;99.90;;;;;;5034111;28;20038;-69
2022/06/16 06:45:04;;;;;;;6.85;1.08;;;16.60;99.90;;;;;;5033800;28;20034;-69
2022/06/16 06:47:31;;;;;;;4.07;0.93;;;16.70;99.90;;;;;;5034083;28;20045;-69
2022/06/16 06:49:57;;;;;;;4.30;1.00;;;16.80;99.90;;;;;;5034238;28;20045;-69
2022/06/16 06:52:23;;;;;;;3.83;1.00;;;16.90;99.90;;;;;;5017428;28;20559;-69
2022/06/16 06:54:49;;;;;;;5.95;1.00;;;16.90;99.90;;;;;;5033729;28;20084;-69
2022/06/16 06:57:24;;;;;;;3.42;0.70;;;17.00;99.90;;;;;;5032645;28;20049;-70
2022/06/16 06:59:51;;;;;;;4.85;0.82;;;17.10;99.90;;;;;;5033807;28;20072;-69
2022/06/16 07:02:17;;;;;;;3.90;0.60;;;17.20;99.90;;;;;;5034025;28;20037;-72
2022/06/16 07:04:43;;;;;;;1.63;0.57;;;17.30;99.90;;;;;;5033944;28;20037;-69
2022/06/16 07:07:12;;;;;;;3.20;0.70;;;17.40;99.90;;;;;;5033553;28;20092;-69
2022/06/16 07:09:38;;;;;;;2.58;0.60;;;17.40;99.90;;;;;;5033633;28;20045;-69
2022/06/16 07:12:04;;;;;;;1.58;0.52;;;17.60;99.90;;;;;;5033692;28;20056;-69
2022/06/16 07:14:30;;;;;;;4.00;0.95;;;17.60;99.90;;;;;;5033916;28;20077;-69
2022/06/16 07:16:56;;;;;;;3.67;0.68;;;17.70;99.90;;;;;;5033861;28;20041;-69
2022/06/16 07:19:22;;;;;;;4.28;0.70;;;17.80;99.90;;;;;;5033543;28;20040;-69
2022/06/16 07:21:48;;;;;;;4.60;0.73;;;17.90;99.90;;;;;;5033493;28;20045;-69
2022/06/16 07:24:14;;;;;;;2.53;0.60;;;17.90;99.90;;;;;;5033620;28;20049;-69
2022/06/16 07:26:40;;;;;;;3.00;0.70;;;18.00;99.90;;;;;;5017145;28;20046;-69
2022/06/16 07:29:06;;;;;;;2.08;0.52;;;18.10;99.90;;;;;;5034243;28;20046;-69
2022/06/16 07:31:31;;;;;;;2.58;0.63;;;18.20;99.90;;;;;;5033343;28;20052;-69
2022/06/16 07:33:57;;;;;;;4.35;0.80;;;18.30;99.90;;;;;;5016831;28;20055;-69
2022/06/16 07:36:24;;;;;;;3.05;0.68;;;18.30;99.90;;;;;;5033394;28;20033;-69
2022/06/16 07:38:49;;;;;;;4.78;0.90;;;18.40;99.90;;;;;;5016528;28;20041;-69
2022/06/16 07:44:20;;;;;;;4.78;0.85;;;18.50;99.90;;;;;;5033075;28;20049;-68
2022/06/16 07:46:49;;;;;;;4.47;1.20;;;18.60;99.90;;;;;;5032625;28;20406;-69
2022/06/16 07:49:22;;;;;;;2.95;0.80;;;18.70;99.90;;;;;;5032760;28;20419;-69
2022/06/16 07:51:50;;;;;;;3.80;0.82;;;18.80;99.90;;;;;;5032749;28;20037;-69
2022/06/16 07:54:17;;;;;;;3.70;0.70;;;18.90;99.90;;;;;;5032659;28;20048;-69
2022/06/16 07:56:43;;;;;;;3.15;0.82;;;19.00;99.90;;;;;;5032795;28;20076;-69
2022/06/16 07:59:09;;;;;;;4.70;1.00;;;19.10;99.90;;;;;;5032745;28;20041;-69
2022/06/16 08:01:34;;;;;;;2.63;0.70;;;19.20;99.90;;;;;;5032823;28;20041;-69
2022/06/16 08:04:05;;;;;;;3.65;0.95;;;19.30;99.90;;;;;;5032678;28;20044;-69
2022/06/16 08:06:32;;;;;;;3.08;1.08;;;19.40;99.90;;;;;;5033112;28;20124;-69
2022/06/16 08:08:57;;;;;;;4.38;1.20;;;19.50;99.90;;;;;;5032459;28;20100;-69
2022/06/16 08:14:07;;;;;;;4.38;1.20;;;19.70;99.90;;;;;;5032941;28;20049;-69
2022/06/16 08:16:33;;;;;;;2.97;0.88;;;19.80;99.90;;;;;;5032541;28;20486;-69
2022/06/16 08:19:00;;;;;;;3.90;1.10;;;19.90;99.70;;;;;;5032218;28;20513;-69
2022/06/16 08:21:26;;;;;;;1.98;0.70;;;20.00;99.90;;;;;;5032756;28;20087;-69
2022/06/16 08:23:52;;;;;;;4.50;1.20;;;20.00;99.90;;;;;;5032245;28;20453;-69
2022/06/16 08:26:17;;;;;;;3.78;1.08;;;20.10;99.80;;;;;;5032191;28;20045;-69
2022/06/16 08:28:43;;;;;;;5.07;1.48;;;20.20;98.30;;;;;;5032097;28;20048;-70
2022/06/16 08:31:09;;;;;;;4.40;1.08;;;20.30;98.40;;;;;;5032013;28;20053;-70
2022/06/16 08:33:36;;;;;;;3.88;1.33;;;20.40;98.50;;;;;;5032007;28;20041;-70
2022/06/16 08:36:01;;;;;;;4.30;1.40;;;20.40;96.00;;;;;;5032008;28;20041;-69
2022/06/16 08:38:27;;;;;;;4.50;1.08;;;20.50;96.60;;;;;;5031917;28;20198;-69
2022/06/16 08:41:12;;;;;;;3.90;1.45;;;20.60;97.00;;;;;;5033271;28;20044;-70
2022/06/16 08:44:00;;;;;;;4.93;1.80;;;20.70;99.90;;;;;;5032070;28;20083;-70
2022/06/16 08:46:35;;;;;;;3.65;1.30;;;20.90;99.80;;;;;;5031994;28;20073;-69
2022/06/16 08:49:13;;;;;;;5.20;1.33;;;21.00;99.60;;;;;;5031956;28;20049;-69
2022/06/16 08:51:48;;;;;;;3.88;1.38;;;21.20;99.90;;;;;;5031937;28;20482;-69
2022/06/16 08:54:28;;;;;;;3.55;1.60;;;21.30;98.50;;;;;;5031802;28;20095;-69
2022/06/16 08:57:03;;;;;;;5.35;1.20;;;21.40;98.70;;;;;;5032268;28;20111;-69
2022/06/16 08:59:37;;;;;;;6.03;1.70;;;21.50;99.00;;;;;;5031854;28;20041;-69
2022/06/16 09:02:41;;;;;;;6.32;1.58;;;21.60;98.20;;;;;;5033996;28;20037;-69
2022/06/16 09:05:28;;;;;;;4.88;1.33;;;21.80;97.70;;;;;;4955923;28;20047;-69
2022/06/16 09:08:20;;;;;;;5.00;1.90;;;21.90;94.10;;;;;;5028158;28;20085;-69
2022/06/16 09:10:55;;;;;;;6.20;1.90;;;22.00;95.00;;;;;;5031968;28;20536;-69
2022/06/16 09:13:46;;;;;;;5.90;1.85;;;22.00;95.50;;;;;;5031746;28;20452;-69
2022/06/16 09:16:36;;;;;;;7.53;1.63;;;22.10;94.00;;;;;;5031646;28;20076;-70
2022/06/16 09:19:16;;;;;;;6.63;2.38;;;22.20;94.00;;;;;;5031752;28;20135;-69
2022/06/16 09:21:53;;;;;;;5.30;2.05;;;22.40;93.20;;;;;;5035867;28;20034;-69
2022/06/16 09:24:24;;;;;;;4.50;1.63;;;22.40;93.20;;;;;;5036063;28;20138;-69
2022/06/16 09:26:58;;;;;;;5.05;1.90;;;22.50;90.90;;;;;;5036138;28;20045;-69
2022/06/16 09:29:35;;;;;;;5.70;2.00;;;22.70;90.60;;;;;;5035843;28;20124;-69
2022/06/16 09:32:17;;;;;;;4.90;1.80;;;22.80;91.30;;;;;;5035692;28;20053;-69
2022/06/16 09:35:02;;;;;;;4.53;2.25;;;22.90;91.10;;;;;;5035396;28;20573;-69
2022/06/16 09:37:32;;;;;;;7.53;2.00;;;23.00;85.40;;;;;;5035286;28;20054;-69
2022/06/16 09:40:03;;;;;;;5.60;1.77;;;22.90;89.40;;;;;;5035326;28;20076;-69
2022/06/16 09:42:38;;;;;;;5.32;1.83;;;22.90;90.90;;;;;;5035507;28;20486;-69
2022/06/16 09:45:26;;;;;;;4.80;2.15;;;22.80;90.00;;;;;;5035107;28;20072;-69
2022/06/16 09:48:15;;;;;;;5.70;2.03;;;22.90;81.50;;;;;;5035179;28;20520;-69
2022/06/16 09:50:57;;;;;;;5.40;1.92;;;23.30;87.50;;;;;;5035151;28;20103;-70
2022/06/16 09:53:37;;;;;;;5.90;2.78;;;23.50;76.30;;;;;;5035177;28;20099;-70
2022/06/16 09:56:26;;;;;;;4.72;1.90;;;23.60;74.50;;;;;;5035152;28;20056;-70
2022/06/16 09:58:58;;;;;;;4.40;2.10;;;23.60;76.00;;;;;;5034880;28;20053;-70
2022/06/16 10:01:47;;;;;;;7.22;2.42;;;23.60;73.60;;;;;;5035387;28;20134;-70
2022/06/16 10:04:13;;;;;;;5.80;2.15;;;23.70;78.40;;;;;;5003178;28;20041;-70
2022/06/16 10:07:07;;;;;;;10.82;2.40;;;23.70;73.70;;;;;;5018504;28;20045;-70
2022/06/16 10:09:42;;;;;;;7.57;2.50;;;23.90;72.00;;;;;;5034955;28;20042;-70
2022/06/16 10:12:49;;;;;;;7.78;2.28;;;24.10;73.40;;;;;;5034704;28;20038;-70
2022/06/16 10:15:25;;;;;;;6.82;2.00;;;24.30;70.60;;;;;;5034602;28;20507;-70
2022/06/16 10:17:51;;;;;;;5.32;2.47;;;24.40;70.80;;;;;;5034701;28;20124;-70
2022/06/16 10:20:19;;;;;;;5.57;2.00;;;24.50;72.00;;;;;;5034698;28;20429;-70
2022/06/16 10:23:06;;;;;;;6.47;1.95;;;24.70;69.70;;;;;;5034357;28;20042;-70
2022/06/16 10:25:36;;;;;;;4.95;2.05;;;24.70;66.50;;;;;;5034583;28;20501;-70
2022/06/16 10:28:31;;;;;;;5.65;2.15;;;24.60;66.00;;;;;;5034569;28;20414;-69
2022/06/16 10:30:59;;;;;;;8.27;2.67;;;24.70;65.00;;;;;;5034590;28;20379;-69
2022/06/16 10:33:37;;;;;;;4.95;2.15;;;24.60;63.70;;;;;;5034219;28;20072;-70
2022/06/16 10:36:12;;;;;;;10.15;2.05;;;24.60;63.10;;;;;;5034385;28;20041;-70
2022/06/16 10:38:44;;;;;;;4.50;1.73;;;24.60;61.30;;;;;;5034033;28;20091;-70
2022/06/16 10:41:29;;;;;;;4.03;1.80;;;24.90;64.20;;;;;;5034423;28;20068;-70
2022/06/16 10:43:57;;;;;;;4.72;2.20;;;25.10;60.00;;;;;;5035481;28;20084;-70
2022/06/16 10:46:36;;;;;;;6.15;2.08;;;25.20;61.40;;;;;;5033877;28;20034;-70
2022/06/16 10:49:11;;;;;;;5.70;2.03;;;25.30;60.80;;;;;;5034410;28;20068;-70
2022/06/16 10:51:55;;;;;;;5.43;1.90;;;25.40;61.30;;;;;;5034114;28;20049;-70
2022/06/16 10:54:27;;;;;;;4.32;1.75;;;25.40;60.40;;;;;;5035106;28;20080;-70
2022/06/16 10:57:12;;;;;;;5.03;1.52;;;25.50;58.00;;;;;;5033969;28;20392;-70
2022/06/16 10:59:45;;;;;;;5.40;1.50;;;25.60;60.30;;;;;;5034054;28;20045;-70
2022/06/16 11:02:17;;;;;;;3.90;1.58;;;25.70;60.60;;;;;;5034098;28;20119;-70
2022/06/16 11:04:44;;;;;;;4.13;1.67;;;25.90;60.60;;;;;;5034136;28;20068;-70
2022/06/16 11:07:19;;;;;;;4.03;1.48;;;26.00;59.20;;;;;;5033623;28;20053;-70
2022/06/16 11:09:45;;;;;;;7.15;2.20;;;25.90;57.40;;;;;;5033563;28;20049;-69
2022/06/16 11:12:16;;;;;;;8.80;2.00;;;25.90;58.10;;;;;;5033524;28;20045;-70
2022/06/16 11:14:44;;;;;;;5.00;2.00;;;26.00;57.40;;;;;;5033634;28;20056;-70
2022/06/16 11:17:27;;;;;;;4.80;2.00;;;26.20;56.40;;;;;;5033330;28;20037;-70
2022/06/16 11:20:01;;;;;;;5.38;1.80;;;26.30;58.00;;;;;;5033612;28;20037;-70
2022/06/16 11:22:34;;;;;;;6.95;1.90;;;26.40;56.60;;;;;;5033623;28;20044;-70
2022/06/16 11:25:20;;;;;;;4.55;1.67;;;26.60;54.40;;;;;;5033584;28;20045;-70
2022/06/16 11:27:55;;;;;;;3.70;1.80;;;26.50;54.50;;;;;;5034119;28;20103;-70
2022/06/16 11:30:32;;;;;;;4.13;1.60;;;26.20;53.50;;;;;;5033583;28;20049;-70
2022/06/16 11:32:58;;;;;;;5.95;1.98;;;26.00;55.00;;;;;;5033659;28;20049;-70
2022/06/16 11:35:49;;;;;;;5.65;1.90;;;26.20;56.60;;;;;;5034662;28;20036;-71
2022/06/16 11:38:29;;;;;;;5.63;2.45;;;26.50;55.70;;;;;;5033296;28;20132;-71
2022/06/16 11:41:00;;;;;;;9.15;2.10;;;26.70;55.00;;;;;;5033067;28;20041;-71
2022/06/16 11:43:44;;;;;;;7.07;1.90;;;26.90;54.80;;;;;;5032593;28;20037;-71
2022/06/16 11:46:32;;;;;;;5.75;1.90;;;26.90;53.20;;;;;;5032941;28;20041;-71
2022/06/16 11:49:18;;;;;;;5.18;1.98;;;27.00;53.40;;;;;;5032854;28;20470;-71
2022/06/16 11:52:07;;;;;;;5.55;1.80;;;27.00;52.40;;;;;;5034019;28;20503;-70
2022/06/16 11:55:14;;;;;;;5.22;1.70;;;27.10;55.00;;;;;;5032956;28;20096;-70
2022/06/16 11:58:05;;;;;;;10.27;1.90;;;26.90;53.00;;;;;;4941087;28;20070;-70
2022/06/16 12:00:50;;;;;;;4.72;1.73;;;26.50;53.20;;;;;;5018051;28;20049;-70
2022/06/16 12:03:50;;;;;;;4.35;1.63;;;26.40;53.00;;;;;;5032569;28;20129;-70
2022/06/16 12:06:38;;;;;;;9.23;2.10;;;26.40;54.90;;;;;;5032538;28;20041;-71
2022/06/16 12:09:09;;;;;;;5.65;1.83;;;26.30;54.40;;;;;;5032420;28;20045;-70
2022/06/16 12:11:49;;;;;;;5.93;1.80;;;26.30;54.90;;;;;;5032934;28;20060;-70
2022/06/16 12:14:29;;;;;;;4.93;1.80;;;26.40;53.40;;;;;;5032546;28;20128;-71
2022/06/16 12:17:04;;;;;;;5.70;1.52;;;26.50;52.00;;;;;;5032219;28;20498;-71
2022/06/16 12:20:08;;;;;;;4.85;2.03;;;26.30;54.30;;;;;;5032321;28;20147;-70
2022/06/16 12:22:43;;;;;;;4.65;1.45;;;26.30;54.60;;;;;;4963935;28;20411;-70
2022/06/16 12:25:18;;;;;;;5.63;1.90;;;26.20;54.60;;;;;;5032534;28;20072;-70
2022/06/16 12:27:58;;;;;;;3.70;1.70;;;26.30;55.20;;;;;;5032401;28;20043;-70
2022/06/16 12:30:33;;;;;;;6.00;2.05;;;26.60;55.80;;;;;;5032379;28;20041;-70
2022/06/16 12:32:59;;;;;;;7.47;1.77;;;26.90;54.70;;;;;;5032365;28;20056;-70
2022/06/16 12:35:41;;;;;;;5.80;1.55;;;27.20;53.60;;;;;;5032123;28;20124;-70
2022/06/16 12:38:27;;;;;;;4.07;1.92;;;27.40;53.90;;;;;;5032140;28;20051;-70
2022/06/16 12:41:04;;;;;;;4.68;1.40;;;27.50;52.10;;;;;;5032422;28;20060;-70
2022/06/16 12:43:35;;;;;;;4.88;2.17;;;27.70;53.40;;;;;;5032257;28;20053;-70
2022/06/16 12:46:08;;;;;;;6.05;2.03;;;27.80;51.90;;;;;;5015334;28;20053;-70
2022/06/16 12:48:51;;;;;;;;;;;27.60;52.00;;;;;;5032713;28;20049;-70
2022/06/16 12:51:21;;;;;;;3.63;1.73;;;27.30;51.70;;;;;;5015367;28;19924;-71
2022/06/16 12:53:57;;;;;;;5.93;2.05;;;27.30;52.80;;;;;;5032422;28;20053;-71
2022/06/16 12:56:25;;;;;;;5.45;2.22;;;27.20;51.50;;;;;;5031610;28;20508;-71
2022/06/16 12:58:56;;;;;;;5.70;2.10;;;27.20;52.70;;;;;;5031734;28;20120;-71
2022/06/16 13:01:22;;;;;;;5.70;1.92;;;27.40;53.00;;;;;;5031726;28;20461;-71
2022/06/16 13:03:58;;;;;;;7.18;1.70;;;27.60;51.30;;;;;;5031688;28;20076;-71
2022/06/16 13:06:25;;;;;;;4.18;1.70;;;27.80;52.00;;;;;;5031689;28;20053;-71
2022/06/16 13:08:56;;;;;;;7.25;2.20;;;28.10;52.00;;;;;;5015247;28;20052;-71
2022/06/16 13:11:30;;;;;;;6.35;1.80;;;28.20;50.80;;;;;;5032187;28;20132;-71
2022/06/16 13:14:11;;;;;;;5.68;2.05;;;28.00;50.70;;;;;;5032434;28;20045;-71
2022/06/16 13:16:40;;;;;;;4.10;2.05;;;27.80;50.10;;;;;;5032177;28;20037;-71
2022/06/16 13:19:09;;;;;;;7.32;2.28;;;27.40;50.40;;;;;;5031606;28;20045;-71
2022/06/16 13:21:41;;;;;;;6.47;1.73;;;27.20;51.30;;;;;;5031558;28;20402;-71
2022/06/16 13:24:23;;;;;;;5.10;1.85;;;27.10;52.40;;;;;;5031881;28;20029;-71
2022/06/16 13:27:22;;;;;;;3.45;1.80;;;27.00;51.60;;;;;;5032100;28;20095;-71
2022/06/16 13:29:51;;;;;;;5.85;1.70;;;26.80;52.30;;;;;;5031609;28;20141;-71
2022/06/16 13:32:38;;;;;;;4.00;1.85;;;26.70;52.20;;;;;;5031529;28;20095;-71